createdAt,value
2018-09-19T00:01:58.050Z,5.50
2018-09-19T00:04:26.728Z,4.87
2018-09-19T00:06:55.396Z,4.50
2018-09-19T00:09:24.046Z,5.13
2018-09-19T00:11:52.693Z,4.53
2018-09-19T00:14:21.347Z,4.30
2018-09-19T00:16:49.965Z,5.00
2018-09-19T00:19:18.635Z,5.17
2018-09-19T00:21:47.251Z,4.93
2018-09-19T00:24:15.925Z,4.80
2018-09-19T00:26:44.574Z,4.70
2018-09-19T00:29:13.194Z,4.97
2018-09-19T00:31:41.857Z,4.90
2018-09-19T00:34:10.549Z,4.70
2018-09-19T00:36:39.163Z,4.97
2018-09-19T00:39:08.793Z,5.10
2018-09-19T00:41:37.613Z,4.63
2018-09-19T00:44:06.388Z,4.73
2018-09-19T00:46:35.004Z,5.00
2018-09-19T00:49:03.611Z,4.30
2018-09-19T00:51:32.244Z,4.83
2018-09-19T00:54:00.864Z,4.13
2018-09-19T00:56:29.491Z,4.20
2018-09-19T00:58:58.232Z,4.83
2018-09-19T01:01:26.890Z,4.40
2018-09-19T01:03:55.517Z,5.30
2018-09-19T01:06:24.118Z,4.97
2018-09-19T01:08:52.724Z,4.90
2018-09-19T01:11:21.355Z,4.63
2018-09-19T01:13:50.074Z,4.10
2018-09-19T01:16:18.723Z,4.60
2018-09-19T01:18:47.343Z,4.33
2018-09-19T01:21:16.044Z,3.87
2018-09-19T01:23:44.650Z,3.53
2018-09-19T01:26:13.304Z,3.60
2018-09-19T01:28:41.934Z,4.03
2018-09-19T01:31:10.569Z,3.60
2018-09-19T01:33:39.227Z,3.27
2018-09-19T01:36:07.883Z,3.70
2018-09-19T01:38:36.524Z,3.10
2018-09-19T01:41:05.176Z,3.60
2018-09-19T01:43:33.824Z,3.53
2018-09-19T01:46:02.440Z,3.50
2018-09-19T01:48:31.079Z,3.00
2018-09-19T01:50:59.732Z,3.20
2018-09-19T01:53:28.376Z,3.27
2018-09-19T01:55:57.026Z,3.40
2018-09-19T01:58:25.741Z,3.50
2018-09-19T02:00:54.358Z,3.53
2018-09-19T02:03:23.007Z,3.27
2018-09-19T02:05:51.692Z,3.30
2018-09-19T02:08:20.331Z,3.30
2018-09-19T02:10:48.994Z,3.47
2018-09-19T02:13:17.808Z,3.30
2018-09-19T02:15:46.442Z,3.63
2018-09-19T02:18:15.107Z,3.70
2018-09-19T02:20:43.832Z,3.77
2018-09-19T02:23:12.531Z,3.87
2018-09-19T02:25:41.177Z,3.87
2018-09-19T02:28:09.888Z,4.30
2018-09-19T02:30:38.557Z,3.83
2018-09-19T02:33:07.178Z,3.40
2018-09-19T02:35:35.884Z,3.77
2018-09-19T02:38:04.633Z,3.80
2018-09-19T02:40:33.274Z,4.17
2018-09-19T02:43:01.895Z,3.50
2018-09-19T02:45:30.533Z,3.87
2018-09-19T02:47:59.176Z,3.50
2018-09-19T02:50:27.807Z,3.60
2018-09-19T02:52:57.265Z,3.50
2018-09-19T02:55:27.007Z,4.27
2018-09-19T02:57:55.659Z,4.67
2018-09-19T03:00:24.361Z,4.17
2018-09-19T03:02:53.012Z,4.40
2018-09-19T03:05:21.676Z,4.80
2018-09-19T03:07:50.287Z,4.50
2018-09-19T03:10:18.908Z,4.53
2018-09-19T03:12:47.558Z,4.57
2018-09-19T03:15:16.192Z,4.87
2018-09-19T03:17:44.926Z,5.23
2018-09-19T03:20:13.514Z,4.20
2018-09-19T03:22:42.130Z,5.30
2018-09-19T03:25:10.828Z,5.20
2018-09-19T03:27:39.499Z,5.30
2018-09-19T03:30:08.207Z,4.87
2018-09-19T03:32:36.833Z,5.80
2018-09-19T03:35:05.551Z,5.37
2018-09-19T03:37:34.200Z,5.57
2018-09-19T03:40:02.811Z,5.10
2018-09-19T03:42:31.424Z,5.20
2018-09-19T03:45:00.055Z,4.63
2018-09-19T03:47:28.712Z,5.30
2018-09-19T03:49:57.325Z,5.57
2018-09-19T03:52:25.927Z,5.20
2018-09-19T03:54:54.590Z,6.57
2018-09-19T03:57:24.161Z,6.90
2018-09-19T03:59:52.792Z,6.70
2018-09-19T04:02:21.452Z,7.87
2018-09-19T04:04:50.076Z,7.10
2018-09-19T04:07:18.835Z,12.70
2018-09-19T04:09:47.551Z,6.60
2018-09-19T04:12:16.399Z,7.50
2018-09-19T04:14:45.191Z,6.93
2018-09-19T04:17:14.180Z,6.33
2018-09-19T04:19:42.958Z,6.80
2018-09-19T04:22:11.863Z,7.23
2018-09-19T04:24:40.811Z,6.93
2018-09-19T04:27:09.864Z,6.50
2018-09-19T04:29:38.568Z,6.07
2018-09-19T04:32:07.254Z,5.43
2018-09-19T04:34:36.171Z,5.80
2018-09-19T04:37:05.340Z,6.00
2018-09-19T04:39:34.229Z,5.07
2018-09-19T04:42:02.939Z,5.20
2018-09-19T04:44:31.630Z,4.93
2018-09-19T04:47:00.384Z,4.47
2018-09-19T04:49:29.058Z,5.60
2018-09-19T04:51:57.770Z,6.40
2018-09-19T04:54:26.409Z,6.67
2018-09-19T04:56:55.084Z,5.70
2018-09-19T04:59:23.768Z,5.33
2018-09-19T05:01:52.455Z,5.77
2018-09-19T05:04:21.110Z,5.67
2018-09-19T05:06:49.763Z,5.47
2018-09-19T05:09:18.464Z,5.20
2018-09-19T05:11:47.111Z,5.43
2018-09-19T05:14:15.849Z,4.70
2018-09-19T05:16:44.506Z,5.00
2018-09-19T05:19:13.153Z,4.73
2018-09-19T05:21:41.790Z,5.57
2018-09-19T05:24:10.449Z,5.37
2018-09-19T05:26:39.135Z,5.20
2018-09-19T05:29:07.771Z,6.53
2018-09-19T05:31:36.578Z,5.67
2018-09-19T05:34:05.241Z,5.80
2018-09-19T05:36:33.910Z,6.10
2018-09-19T05:39:02.578Z,5.97
2018-09-19T05:41:31.258Z,5.17
2018-09-19T05:43:59.920Z,5.57
2018-09-19T05:46:28.548Z,5.10
2018-09-19T05:48:57.180Z,4.90
2018-09-19T05:51:25.860Z,4.90
2018-09-19T05:53:54.515Z,4.80
2018-09-19T05:56:23.218Z,5.50
2018-09-19T05:58:51.902Z,4.00
2018-09-19T06:01:20.586Z,4.80
2018-09-19T06:03:49.252Z,4.40
2018-09-19T06:06:17.883Z,3.57
2018-09-19T06:08:46.676Z,3.47
2018-09-19T06:11:15.381Z,3.60
2018-09-19T06:13:44.180Z,3.80
2018-09-19T06:16:12.820Z,3.50
2018-09-19T06:18:41.429Z,5.83
2018-09-19T06:21:10.095Z,4.00
2018-09-19T06:23:38.873Z,4.30
2018-09-19T06:26:07.522Z,5.43
2018-09-19T06:28:36.170Z,6.93
2018-09-19T06:31:04.756Z,9.00
2018-09-19T06:33:33.477Z,7.60
2018-09-19T06:36:02.073Z,6.28
2018-09-19T06:38:30.707Z,7.10
2018-09-19T06:40:59.423Z,9.35
2018-09-19T06:43:28.062Z,8.48
2018-09-19T06:45:56.689Z,5.22
2018-09-19T06:48:25.310Z,5.12
2018-09-19T06:50:53.995Z,3.33
2018-09-19T06:53:22.637Z,3.22
2018-09-19T06:55:51.289Z,3.00
2018-09-19T06:58:20.017Z,3.95
2018-09-19T07:00:48.654Z,4.85
2018-09-19T07:03:17.328Z,3.30
2018-09-19T07:05:46.169Z,3.42
2018-09-19T07:08:14.870Z,3.50
2018-09-19T07:10:43.593Z,3.70
2018-09-19T07:13:12.311Z,4.80
2018-09-19T07:15:41.046Z,4.28
2018-09-19T07:18:09.756Z,4.15
2018-09-19T07:20:38.435Z,4.62
2018-09-19T07:23:07.227Z,4.08
2018-09-19T07:25:35.886Z,3.77
2018-09-19T07:28:04.615Z,5.03
2018-09-19T07:30:33.235Z,4.65
2018-09-19T07:33:01.888Z,5.20
2018-09-19T07:35:30.656Z,4.40
2018-09-19T07:37:59.277Z,8.98
2018-09-19T07:40:28.002Z,12.03
2018-09-19T07:42:56.634Z,6.62
2018-09-19T07:45:25.275Z,6.00
2018-09-19T07:47:53.951Z,6.72
2018-09-19T07:50:22.586Z,7.75
2018-09-19T07:52:51.236Z,9.53
2018-09-19T07:55:19.932Z,7.28
2018-09-19T07:57:48.589Z,7.40
2018-09-19T08:00:20.154Z,8.30
2018-09-19T08:02:49.109Z,6.80
2018-09-19T08:05:18.141Z,8.05
2018-09-19T08:07:46.867Z,6.80
2018-09-19T08:10:15.523Z,6.53
2018-09-19T08:12:44.159Z,7.80
2018-09-19T08:15:12.803Z,8.70
2018-09-19T08:17:41.416Z,8.40
2018-09-19T08:20:10.283Z,8.25
2018-09-19T08:22:39.035Z,8.15
2018-09-19T08:25:07.883Z,8.75
2018-09-19T08:27:36.768Z,9.43
2018-09-19T08:30:08.766Z,9.00
2018-09-19T08:32:37.433Z,8.83
2018-09-19T08:35:06.294Z,12.00
2018-09-19T08:37:35.082Z,10.58
2018-09-19T08:40:04.099Z,8.48
2018-09-19T08:42:32.738Z,9.45
2018-09-19T08:45:01.421Z,10.78
2018-09-19T08:47:30.155Z,9.35
2018-09-19T08:49:58.798Z,7.10
2018-09-19T08:52:27.549Z,7.17
2018-09-19T08:54:56.232Z,9.38
2018-09-19T08:57:24.969Z,8.90
2018-09-19T08:59:53.788Z,8.88
2018-09-19T09:02:22.458Z,8.23
2018-09-19T09:04:51.147Z,7.10
2018-09-19T09:07:19.851Z,6.92
2018-09-19T09:09:48.481Z,6.62
2018-09-19T09:12:17.235Z,7.17
2018-09-19T09:14:45.909Z,6.97
2018-09-19T09:17:14.631Z,6.37
2018-09-19T09:19:43.393Z,7.50
2018-09-19T09:22:12.103Z,6.87
2018-09-19T09:24:40.834Z,7.12
2018-09-19T09:27:09.641Z,7.67
2018-09-19T09:29:38.270Z,8.40
2018-09-19T09:32:07.009Z,6.95
2018-09-19T09:34:35.666Z,6.78
2018-09-19T09:37:04.433Z,7.00
2018-09-19T09:39:33.079Z,6.90
2018-09-19T09:42:01.851Z,6.83
2018-09-19T09:44:30.606Z,6.70
2018-09-19T09:46:59.561Z,5.90
2018-09-19T09:49:28.357Z,5.42
2018-09-19T09:51:57.113Z,6.62
2018-09-19T09:54:25.898Z,6.55
2018-09-19T09:56:54.570Z,5.53
2018-09-19T09:59:23.251Z,6.78
2018-09-19T10:01:52.082Z,5.75
2018-09-19T10:04:20.799Z,5.80
2018-09-19T10:06:49.488Z,6.42
2018-09-19T10:09:24.550Z,5.80
2018-09-19T10:11:53.244Z,5.70
2018-09-19T10:14:21.888Z,6.22
2018-09-19T10:16:50.658Z,5.55
2018-09-19T10:19:19.723Z,5.37
2018-09-19T10:21:48.430Z,6.67
2018-09-19T10:24:17.115Z,5.95
2018-09-19T10:26:45.760Z,6.50
2018-09-19T10:29:14.476Z,6.37
2018-09-19T10:31:43.090Z,5.78
2018-09-19T10:34:11.770Z,5.30
2018-09-19T10:36:40.447Z,5.33
2018-09-19T10:39:09.121Z,5.00
2018-09-19T10:41:37.815Z,5.65
2018-09-19T10:44:06.503Z,5.28
2018-09-19T10:46:35.219Z,5.67
2018-09-19T10:49:03.889Z,6.08
2018-09-19T10:51:32.805Z,5.30
2018-09-19T10:54:01.512Z,5.75
2018-09-19T10:56:30.201Z,5.60
2018-09-19T10:58:58.887Z,5.20
2018-09-19T11:01:27.593Z,5.00
2018-09-19T11:03:56.330Z,4.92
2018-09-19T11:06:25.043Z,6.47
2018-09-19T11:08:53.778Z,4.72
2018-09-19T11:11:22.550Z,5.40
2018-09-19T11:13:51.233Z,5.40
2018-09-19T11:16:19.875Z,4.60
2018-09-19T11:18:48.565Z,4.90
2018-09-19T11:21:17.322Z,5.05
2018-09-19T11:23:46.010Z,5.12
2018-09-19T11:26:14.698Z,4.95
2018-09-19T11:28:43.371Z,5.75
2018-09-19T11:31:12.083Z,5.25
2018-09-19T11:33:40.785Z,6.15
2018-09-19T11:36:09.405Z,5.20
2018-09-19T11:38:38.062Z,4.80
2018-09-19T11:41:06.755Z,5.00
2018-09-19T11:43:35.439Z,5.37
2018-09-19T11:46:05.041Z,4.53
2018-09-19T11:48:33.707Z,5.20
2018-09-19T11:51:02.407Z,5.30
2018-09-19T11:53:31.044Z,5.33
2018-09-19T11:56:00.519Z,5.08
2018-09-19T11:58:30.168Z,4.95
2018-09-19T12:00:59.247Z,6.10
2018-09-19T12:03:28.443Z,5.15
2018-09-19T12:05:57.142Z,5.60
2018-09-19T12:08:25.803Z,4.80
2018-09-19T12:10:54.507Z,5.30
2018-09-19T12:13:23.178Z,4.65
2018-09-19T12:15:51.846Z,6.62
2018-09-19T12:18:20.542Z,4.90
2018-09-19T12:20:49.199Z,4.95
2018-09-19T12:23:17.876Z,4.87
2018-09-19T12:25:46.603Z,5.10
2018-09-19T12:28:15.262Z,4.97
2018-09-19T12:30:43.891Z,5.47
2018-09-19T12:33:12.566Z,4.87
2018-09-19T12:35:41.241Z,4.92
2018-09-19T12:38:09.887Z,4.85
2018-09-19T12:40:38.665Z,5.12
2018-09-19T12:43:07.358Z,6.00
2018-09-19T12:45:36.619Z,4.95
2018-09-19T12:48:05.404Z,4.78
2018-09-19T12:50:34.184Z,4.67
2018-09-19T12:53:02.907Z,5.05
2018-09-19T12:55:31.647Z,4.53
2018-09-19T12:58:00.361Z,4.30
2018-09-19T13:00:29.039Z,4.70
2018-09-19T13:02:57.720Z,4.62
2018-09-19T13:05:26.332Z,4.30
2018-09-19T13:07:55.025Z,4.58
2018-09-19T13:10:23.710Z,4.65
2018-09-19T13:12:52.402Z,4.72
2018-09-19T13:15:21.074Z,4.65
2018-09-19T13:17:49.803Z,4.75
2018-09-19T13:20:18.467Z,4.33
2018-09-19T13:22:47.153Z,4.45
2018-09-19T13:25:15.924Z,4.87
2018-09-19T13:27:44.566Z,4.90
2018-09-19T13:30:13.352Z,5.00
2018-09-19T13:32:42.016Z,5.03
2018-09-19T13:35:10.691Z,5.03
2018-09-19T13:37:39.371Z,5.30
2018-09-19T13:40:08.141Z,4.97
2018-09-19T13:42:36.915Z,6.10
2018-09-19T13:45:05.603Z,5.40
2018-09-19T13:47:34.423Z,4.97
2018-09-19T13:50:20.228Z,5.50
2018-09-19T13:52:48.934Z,5.80
2018-09-19T13:55:17.658Z,5.93
2018-09-19T13:57:46.335Z,5.50
2018-09-19T14:00:21.049Z,5.80
2018-09-19T14:02:49.743Z,6.97
2018-09-19T14:05:18.407Z,4.80
2018-09-19T14:07:47.247Z,4.93
2018-09-19T14:10:16.036Z,5.80
2018-09-19T14:12:44.755Z,5.67
2018-09-19T14:15:13.739Z,5.57
2018-09-19T14:17:42.423Z,5.77
2018-09-19T14:20:11.196Z,5.17
2018-09-19T14:22:39.914Z,5.80
2018-09-19T14:25:08.568Z,5.50
2018-09-19T14:27:37.223Z,3.93
2018-09-19T14:30:07.069Z,4.90
2018-09-19T14:32:36.034Z,4.43
2018-09-19T14:35:04.750Z,4.87
2018-09-19T14:37:33.518Z,4.10
2018-09-19T14:40:02.193Z,6.93
2018-09-19T14:42:30.867Z,4.97
2018-09-19T14:44:59.495Z,4.40
2018-09-19T14:47:28.179Z,5.00
2018-09-19T14:49:57.028Z,4.77
2018-09-19T14:52:25.723Z,4.60
2018-09-19T14:54:54.354Z,5.60
2018-09-19T14:57:23.049Z,7.93
2018-09-19T14:59:51.691Z,4.77
2018-09-19T15:02:20.399Z,3.57
2018-09-19T15:04:49.084Z,3.70
2018-09-19T15:07:17.790Z,4.13
2018-09-19T15:09:46.452Z,3.73
2018-09-19T15:12:15.138Z,4.30
2018-09-19T15:14:43.931Z,4.03
2018-09-19T15:17:12.615Z,4.30
2018-09-19T15:19:41.353Z,3.53
2018-09-19T15:22:10.012Z,5.00
2018-09-19T15:24:38.700Z,3.97
2018-09-19T15:27:07.655Z,3.87
2018-09-19T15:29:36.327Z,3.67
2018-09-19T15:32:05.012Z,3.93
2018-09-19T15:34:33.643Z,3.93
2018-09-19T15:37:02.394Z,4.60
2018-09-19T15:39:31.104Z,4.13
2018-09-19T15:42:02.983Z,5.50
2018-09-19T15:44:31.830Z,3.93
2018-09-19T15:47:00.383Z,5.00
2018-09-19T15:49:29.144Z,5.10
2018-09-19T15:51:57.843Z,3.93
2018-09-19T15:54:26.489Z,4.03
2018-09-19T15:56:55.144Z,4.60
2018-09-19T15:59:23.850Z,4.40
2018-09-19T16:01:52.510Z,3.87
2018-09-19T16:04:21.163Z,3.80
2018-09-19T16:06:50.100Z,4.80
2018-09-19T16:09:18.844Z,5.70
2018-09-19T16:11:47.531Z,4.00
2018-09-19T16:14:16.260Z,4.47
2018-09-19T16:16:44.940Z,3.23
2018-09-19T16:19:13.632Z,3.73
2018-09-19T16:21:42.286Z,3.80
2018-09-19T16:24:10.927Z,4.10
2018-09-19T16:26:39.571Z,3.53
2018-09-19T16:29:08.282Z,4.57
2018-09-19T16:31:36.935Z,3.77
2018-09-19T16:34:05.804Z,3.57
2018-09-19T16:36:34.559Z,5.13
2018-09-19T16:39:04.643Z,5.27
2018-09-19T16:41:33.322Z,3.97
2018-09-19T16:44:02.071Z,5.00
2018-09-19T16:46:30.712Z,5.20
2018-09-19T16:48:59.371Z,4.93
2018-09-19T16:51:28.063Z,6.70
2018-09-19T16:53:56.880Z,4.77
2018-09-19T16:56:25.837Z,4.83
2018-09-19T16:58:54.498Z,4.33
2018-09-19T17:01:23.244Z,3.90
2018-09-19T17:03:51.929Z,8.50
2018-09-19T17:06:20.603Z,5.50
2018-09-19T17:08:49.225Z,6.10
2018-09-19T17:11:17.887Z,5.80
2018-09-19T17:13:46.524Z,4.80
2018-09-19T17:16:15.714Z,4.50
2018-09-19T17:18:44.407Z,4.63
2018-09-19T17:21:13.114Z,5.73
2018-09-19T17:23:41.748Z,5.37
2018-09-19T17:26:10.385Z,5.20
2018-09-19T17:28:39.273Z,4.87
2018-09-19T17:31:07.981Z,6.03
2018-09-19T17:33:36.997Z,5.90
2018-09-19T17:36:05.887Z,6.87
2018-09-19T17:38:34.660Z,5.87
2018-09-19T17:41:03.347Z,5.70
2018-09-19T17:43:32.062Z,6.30
2018-09-19T17:46:01.057Z,6.37
2018-09-19T17:48:29.940Z,5.73
2018-09-19T17:50:58.617Z,5.13
2018-09-19T17:53:27.263Z,5.87
2018-09-19T17:55:55.930Z,6.30
2018-09-19T17:58:24.625Z,5.90
2018-09-19T18:00:53.389Z,5.07
2018-09-19T18:03:22.063Z,5.00
2018-09-19T18:05:51.081Z,4.93
2018-09-19T18:08:19.797Z,5.30
2018-09-19T18:10:49.148Z,4.53
2018-09-19T18:13:17.815Z,4.80
2018-09-19T18:15:46.749Z,5.33
2018-09-19T18:18:15.493Z,6.30
2018-09-19T18:20:44.303Z,6.60
2018-09-19T18:23:12.952Z,6.83
2018-09-19T18:25:41.811Z,8.17
2018-09-19T18:28:10.481Z,7.67
2018-09-19T18:30:39.308Z,7.37
2018-09-19T18:33:07.979Z,7.23
2018-09-19T18:35:36.670Z,7.00
2018-09-19T18:38:05.337Z,6.97
2018-09-19T18:40:34.089Z,6.17
2018-09-19T18:43:02.787Z,7.17
2018-09-19T18:45:31.426Z,6.47
2018-09-19T18:48:00.117Z,6.70
2018-09-19T18:50:28.770Z,7.13
2018-09-19T18:52:57.407Z,7.67
2018-09-19T18:55:26.055Z,8.13
2018-09-19T18:57:54.715Z,8.07
2018-09-19T19:00:23.449Z,6.07
2018-09-19T19:02:52.100Z,6.67
2018-09-19T19:05:20.856Z,6.27
2018-09-19T19:07:49.519Z,6.93
2018-09-19T19:10:18.189Z,6.97
2018-09-19T19:12:46.881Z,7.77
2018-09-19T19:15:15.479Z,7.30
2018-09-19T19:17:44.105Z,7.67
2018-09-19T19:20:12.779Z,6.70
2018-09-19T19:22:41.471Z,7.37
2018-09-19T19:25:10.187Z,7.40
2018-09-19T19:27:39.207Z,8.23
2018-09-19T19:30:11.759Z,12.00
2018-09-19T19:32:40.422Z,16.70
2018-09-19T19:35:09.156Z,12.40
2018-09-19T19:37:37.879Z,15.30
2018-09-19T19:40:06.869Z,15.50
2018-09-19T19:42:35.612Z,13.80
2018-09-19T19:45:04.259Z,8.70
2018-09-19T19:47:32.876Z,8.30
2018-09-19T19:50:01.529Z,7.07
2018-09-19T19:52:30.173Z,7.80
2018-09-19T19:54:58.811Z,8.77
2018-09-19T19:57:27.481Z,7.27
2018-09-19T19:59:56.106Z,7.07
2018-09-19T20:02:24.748Z,5.90
2018-09-19T20:04:53.453Z,6.13
2018-09-19T20:07:22.179Z,6.80
2018-09-19T20:09:50.828Z,6.50
2018-09-19T20:12:19.533Z,5.97
2018-09-19T20:14:48.200Z,6.70
2018-09-19T20:17:16.932Z,6.27
2018-09-19T20:19:45.657Z,5.77
2018-09-19T20:22:14.307Z,6.23
2018-09-19T20:24:42.986Z,6.70
2018-09-19T20:27:11.616Z,6.53
2018-09-19T20:29:40.263Z,6.83
2018-09-19T20:32:08.904Z,6.53
2018-09-19T20:34:37.640Z,7.40
2018-09-19T20:37:06.444Z,7.40
2018-09-19T20:39:35.095Z,7.23
2018-09-19T20:42:03.732Z,6.50
2018-09-19T20:44:32.456Z,6.90
2018-09-19T20:47:01.239Z,7.13
2018-09-19T20:49:29.865Z,7.13
2018-09-19T20:51:58.532Z,6.90
2018-09-19T20:54:28.645Z,7.00
2018-09-19T20:56:57.400Z,7.03
2018-09-19T20:59:26.072Z,8.20
2018-09-19T21:01:54.731Z,7.43
2018-09-19T21:04:23.442Z,7.37
2018-09-19T21:06:52.131Z,7.70
2018-09-19T21:09:20.761Z,7.10
2018-09-19T21:11:49.400Z,6.63
2018-09-19T21:14:18.075Z,8.90
2018-09-19T21:16:46.738Z,13.70
2018-09-19T21:19:15.383Z,10.90
2018-09-19T21:21:44.109Z,8.17
2018-09-19T21:24:12.884Z,7.20
2018-09-19T21:26:41.555Z,7.30
2018-09-19T21:29:10.240Z,7.87
2018-09-19T21:31:38.971Z,7.07
2018-09-19T21:34:07.675Z,7.40
2018-09-19T21:36:36.338Z,6.53
2018-09-19T21:39:07.797Z,5.87
2018-09-19T21:41:36.476Z,6.13
2018-09-19T21:44:05.115Z,6.67
2018-09-19T21:46:33.773Z,5.90
2018-09-19T21:49:02.396Z,5.37
2018-09-19T21:51:31.097Z,5.53
2018-09-19T21:53:59.770Z,5.20
2018-09-19T21:56:28.476Z,5.43
2018-09-19T21:58:57.218Z,4.77
2018-09-19T22:01:31.045Z,4.97
2018-09-19T22:03:59.755Z,4.73
2018-09-19T22:06:28.440Z,4.77
2018-09-19T22:08:57.118Z,4.73
2018-09-19T22:11:25.840Z,4.63
2018-09-19T22:13:54.467Z,5.07
2018-09-19T22:16:23.114Z,5.20
2018-09-19T22:18:51.795Z,4.87
2018-09-19T22:21:20.438Z,4.77
2018-09-19T22:23:49.085Z,4.57
2018-09-19T22:26:17.770Z,4.83
2018-09-19T22:28:46.411Z,4.70
2018-09-19T22:31:15.056Z,4.90
2018-09-19T22:33:43.791Z,5.50
2018-09-19T22:36:12.433Z,4.90
2018-09-19T22:38:41.108Z,5.07
2018-09-19T22:41:09.832Z,5.53
2018-09-19T22:43:38.473Z,5.57
2018-09-19T22:46:07.166Z,5.13
2018-09-19T22:48:35.900Z,5.37
2018-09-19T22:51:04.611Z,5.63
2018-09-19T22:53:33.315Z,5.90
2018-09-19T22:56:01.973Z,5.10
2018-09-19T22:58:30.657Z,5.47
2018-09-19T23:00:59.379Z,6.00
2018-09-19T23:03:28.040Z,5.90
2018-09-19T23:05:56.706Z,6.50
2018-09-19T23:08:25.349Z,6.03
2018-09-19T23:10:53.974Z,6.57
2018-09-19T23:13:22.635Z,6.37
2018-09-19T23:15:51.269Z,5.77
2018-09-19T23:18:20.265Z,6.17
2018-09-19T23:23:46.521Z,6.93
2018-09-19T23:26:15.152Z,6.17
2018-09-19T23:28:43.829Z,5.87
2018-09-19T23:31:12.478Z,5.27
2018-09-19T23:33:41.135Z,5.83
2018-09-19T23:36:09.749Z,5.80
2018-09-19T23:38:39.140Z,5.23
2018-09-19T23:41:07.808Z,5.90
2018-09-19T23:43:36.465Z,5.40
2018-09-19T23:46:05.168Z,5.73
2018-09-19T23:48:33.863Z,5.33
2018-09-19T23:51:02.479Z,5.20
2018-09-19T23:53:31.113Z,5.00
2018-09-19T23:55:59.833Z,5.00
2018-09-19T23:58:28.437Z,4.80
